sensor_id;sensor_type;location;lat;lon;timestamp;pressure;altitude;pressure_sealevel;temperature;humidity
15193;BME280;7697;51.630;7.484;2023-04-12T00:04:23;99999.47;;;11.15;64.21
15193;BME280;7697;51.630;7.484;2023-04-12T00:09:28;99977.06;;;11.11;64.29
15193;BME280;7697;51.630;7.484;2023-04-12T00:14:31;99977.81;;;11.18;64.06
15193;BME280;7697;51.630;7.484;2023-04-12T00:19:35;99976.22;;;11.17;63.96
15193;BME280;7697;51.630;7.484;2023-04-12T00:24:40;99975.97;;;11.19;64.55
15193;BME280;7697;51.630;7.484;2023-04-12T00:29:42;99956.03;;;11.16;64.30
15193;BME280;7697;51.630;7.484;2023-04-12T00:34:46;99946.88;;;11.12;64.03
15193;BME280;7697;51.630;7.484;2023-04-12T00:39:48;99941.81;;;11.11;64.51
15193;BME280;7697;51.630;7.484;2023-04-12T00:44:49;99945.44;;;11.16;64.03
15193;BME280;7697;51.630;7.484;2023-04-12T00:49:53;99933.00;;;11.17;64.96
15193;BME280;7697;51.630;7.484;2023-04-12T00:54:55;99909.66;;;11.07;64.80
15193;BME280;7697;51.630;7.484;2023-04-12T00:59:57;99914.44;;;11.17;65.13
15193;BME280;7697;51.630;7.484;2023-04-12T01:05:01;99902.44;;;11.14;65.37
15193;BME280;7697;51.630;7.484;2023-04-12T01:10:08;99889.31;;;11.19;65.24
15193;BME280;7697;51.630;7.484;2023-04-12T01:15:15;99888.25;;;11.27;65.42
15193;BME280;7697;51.630;7.484;2023-04-12T01:20:22;99872.25;;;11.34;65.93
15193;BME280;7697;51.630;7.484;2023-04-12T01:25:38;99855.03;;;11.24;65.50
15193;BME280;7697;51.630;7.484;2023-04-12T01:30:43;99861.44;;;11.35;66.08
15193;BME280;7697;51.630;7.484;2023-04-12T01:35:47;99853.09;;;11.32;66.53
15193;BME280;7697;51.630;7.484;2023-04-12T01:40:50;99848.25;;;11.28;67.01
15193;BME280;7697;51.630;7.484;2023-04-12T01:45:53;99826.31;;;11.21;67.88
15193;BME280;7697;51.630;7.484;2023-04-12T01:50:59;99822.75;;;11.27;68.12
15193;BME280;7697;51.630;7.484;2023-04-12T01:56:07;99812.16;;;11.27;68.67
15193;BME280;7697;51.630;7.484;2023-04-12T02:01:12;99819.09;;;11.28;69.58
15193;BME280;7697;51.630;7.484;2023-04-12T02:06:15;99799.59;;;11.23;69.68
15193;BME280;7697;51.630;7.484;2023-04-12T02:11:18;99789.78;;;11.23;70.42
15193;BME280;7697;51.630;7.484;2023-04-12T02:16:21;99771.09;;;11.18;70.69
15193;BME280;7697;51.630;7.484;2023-04-12T02:21:23;99761.97;;;11.14;71.69
15193;BME280;7697;51.630;7.484;2023-04-12T02:26:25;99747.53;;;11.10;72.37
15193;BME280;7697;51.630;7.484;2023-04-12T02:31:28;99743.66;;;11.13;72.66
15193;BME280;7697;51.630;7.484;2023-04-12T02:36:30;99724.75;;;11.09;73.95
15193;BME280;7697;51.630;7.484;2023-04-12T02:41:32;99702.25;;;11.00;74.04
15193;BME280;7697;51.630;7.484;2023-04-12T02:46:35;99697.06;;;11.05;74.71
15193;BME280;7697;51.630;7.484;2023-04-12T02:51:37;99679.28;;;10.94;75.16
15193;BME280;7697;51.630;7.484;2023-04-12T02:56:39;99679.75;;;10.91;75.48
15193;BME280;7697;51.630;7.484;2023-04-12T03:01:44;99664.50;;;10.86;76.04
15193;BME280;7697;51.630;7.484;2023-04-12T03:06:46;99646.50;;;10.77;76.95
15193;BME280;7697;51.630;7.484;2023-04-12T03:11:53;99633.03;;;10.78;77.97
15193;BME280;7697;51.630;7.484;2023-04-12T03:16:56;99617.69;;;10.69;77.71
15193;BME280;7697;51.630;7.484;2023-04-12T03:21:57;99605.19;;;10.58;78.76
15193;BME280;7697;51.630;7.484;2023-04-12T03:27:00;99590.00;;;10.65;79.99
15193;BME280;7697;51.630;7.484;2023-04-12T03:32:04;99575.03;;;10.59;79.93
15193;BME280;7697;51.630;7.484;2023-04-12T03:37:06;99550.00;;;10.43;81.19
15193;BME280;7697;51.630;7.484;2023-04-12T03:42:08;99551.84;;;10.42;81.76
15193;BME280;7697;51.630;7.484;2023-04-12T03:47:11;99531.91;;;10.40;82.00
15193;BME280;7697;51.630;7.484;2023-04-12T03:52:13;99526.06;;;10.38;82.16
15193;BME280;7697;51.630;7.484;2023-04-12T03:57:15;99501.28;;;10.32;81.88
15193;BME280;7697;51.630;7.484;2023-04-12T04:02:18;99503.31;;;10.30;82.14
15193;BME280;7697;51.630;7.484;2023-04-12T04:07:20;99493.34;;;10.32;81.86
15193;BME280;7697;51.630;7.484;2023-04-12T04:12:22;99463.06;;;10.28;81.75
15193;BME280;7697;51.630;7.484;2023-04-12T04:17:25;99465.72;;;10.28;82.09
15193;BME280;7697;51.630;7.484;2023-04-12T04:22:27;99453.84;;;10.19;82.10
15193;BME280;7697;51.630;7.484;2023-04-12T04:27:29;99448.44;;;10.26;82.44
15193;BME280;7697;51.630;7.484;2023-04-12T04:32:35;99446.59;;;10.26;82.97
15193;BME280;7697;51.630;7.484;2023-04-12T04:37:37;99432.78;;;10.24;82.65
15193;BME280;7697;51.630;7.484;2023-04-12T04:42:40;99406.03;;;10.14;83.51
15193;BME280;7697;51.630;7.484;2023-04-12T04:47:44;99410.59;;;10.25;83.29
15193;BME280;7697;51.630;7.484;2023-04-12T04:52:46;99410.44;;;10.20;83.74
15193;BME280;7697;51.630;7.484;2023-04-12T04:57:48;99411.19;;;10.27;83.65
15193;BME280;7697;51.630;7.484;2023-04-12T05:02:52;99383.63;;;10.16;83.63
15193;BME280;7697;51.630;7.484;2023-04-12T05:07:54;99383.31;;;10.25;84.37
15193;BME280;7697;51.630;7.484;2023-04-12T05:12:57;99381.94;;;10.22;84.43
15193;BME280;7697;51.630;7.484;2023-04-12T05:18:00;99375.38;;;10.25;85.26
15193;BME280;7697;51.630;7.484;2023-04-12T05:23:02;99374.22;;;10.21;86.17
15193;BME280;7697;51.630;7.484;2023-04-12T05:28:04;99351.97;;;10.10;86.42
15193;BME280;7697;51.630;7.484;2023-04-12T05:33:14;99343.69;;;10.06;86.88
15193;BME280;7697;51.630;7.484;2023-04-12T05:38:16;99342.53;;;10.14;88.05
15193;BME280;7697;51.630;7.484;2023-04-12T05:43:18;99343.09;;;10.04;88.32
15193;BME280;7697;51.630;7.484;2023-04-12T05:48:21;99319.84;;;9.95;88.93
15193;BME280;7697;51.630;7.484;2023-04-12T05:53:23;99328.13;;;9.98;90.59
15193;BME280;7697;51.630;7.484;2023-04-12T05:58:29;99317.88;;;9.90;91.34
15193;BME280;7697;51.630;7.484;2023-04-12T06:03:32;99308.13;;;9.91;91.82
15193;BME280;7697;51.630;7.484;2023-04-12T06:08:34;99314.22;;;9.91;92.45
15193;BME280;7697;51.630;7.484;2023-04-12T06:13:37;99305.78;;;9.83;93.15
15193;BME280;7697;51.630;7.484;2023-04-12T06:18:41;99275.75;;;9.77;93.26
15193;BME280;7697;51.630;7.484;2023-04-12T06:23:45;99283.47;;;9.78;94.32
15193;BME280;7697;51.630;7.484;2023-04-12T06:28:47;99259.56;;;9.73;94.21
15193;BME280;7697;51.630;7.484;2023-04-12T06:33:50;99244.84;;;9.77;94.79
15193;BME280;7697;51.630;7.484;2023-04-12T06:38:52;99246.00;;;9.82;94.82
15193;BME280;7697;51.630;7.484;2023-04-12T06:43:54;99242.69;;;9.86;95.82
15193;BME280;7697;51.630;7.484;2023-04-12T06:48:57;99210.63;;;9.83;95.69
15193;BME280;7697;51.630;7.484;2023-04-12T06:53:59;99228.31;;;9.94;96.20
15193;BME280;7697;51.630;7.484;2023-04-12T07:04:15;99202.66;;;9.94;96.54
15193;BME280;7697;51.630;7.484;2023-04-12T07:09:18;99189.69;;;9.93;96.92
15193;BME280;7697;51.630;7.484;2023-04-12T07:14:23;99180.16;;;9.92;97.81
15193;BME280;7697;51.630;7.484;2023-04-12T07:19:26;99173.59;;;9.94;97.67
15193;BME280;7697;51.630;7.484;2023-04-12T07:24:29;99162.78;;;9.96;98.34
15193;BME280;7697;51.630;7.484;2023-04-12T07:29:30;99162.19;;;10.05;98.59
15193;BME280;7697;51.630;7.484;2023-04-12T07:34:33;99152.78;;;10.09;98.59
15193;BME280;7697;51.630;7.484;2023-04-12T07:39:36;99127.25;;;10.03;98.87
15193;BME280;7697;51.630;7.484;2023-04-12T07:44:39;99131.41;;;10.11;99.12
15193;BME280;7697;51.630;7.484;2023-04-12T08:00:05;99107.09;;;10.37;99.63
15193;BME280;7697;51.630;7.484;2023-04-12T08:05:08;99104.31;;;10.44;99.41
15193;BME280;7697;51.630;7.484;2023-04-12T08:10:10;99092.94;;;10.43;99.85
15193;BME280;7697;51.630;7.484;2023-04-12T08:15:14;99104.97;;;10.51;99.88
15193;BME280;7697;51.630;7.484;2023-04-12T08:20:16;99077.13;;;10.48;99.84
15193;BME280;7697;51.630;7.484;2023-04-12T08:25:18;99082.75;;;10.64;100.00
15193;BME280;7697;51.630;7.484;2023-04-12T08:30:21;99088.53;;;10.77;99.89
15193;BME280;7697;51.630;7.484;2023-04-12T08:35:26;99099.38;;;10.76;99.93
15193;BME280;7697;51.630;7.484;2023-04-12T09:01:12;99071.94;;;10.82;100.00
15193;BME280;7697;51.630;7.484;2023-04-12T09:06:15;99074.53;;;10.94;100.00
15193;BME280;7697;51.630;7.484;2023-04-12T09:11:24;99062.25;;;11.04;100.00
15193;BME280;7697;51.630;7.484;2023-04-12T09:16:35;99067.31;;;11.06;100.00
15193;BME280;7697;51.630;7.484;2023-04-12T09:21:54;99050.47;;;11.12;100.00
15193;BME280;7697;51.630;7.484;2023-04-12T09:27:01;99050.47;;;11.12;100.00
15193;BME280;7697;51.630;7.484;2023-04-12T09:32:06;99034.25;;;11.08;100.00
15193;BME280;7697;51.630;7.484;2023-04-12T09:37:12;99052.00;;;11.24;100.00
15193;BME280;7697;51.630;7.484;2023-04-12T09:42:15;99044.53;;;11.21;100.00
15193;BME280;7697;51.630;7.484;2023-04-12T09:47:18;99039.56;;;11.25;100.00
15193;BME280;7697;51.630;7.484;2023-04-12T09:52:20;99035.28;;;11.41;100.00
15193;BME280;7697;51.630;7.484;2023-04-12T09:57:23;99038.31;;;11.49;100.00
15193;BME280;7697;51.630;7.484;2023-04-12T10:02:27;99045.94;;;11.62;100.00
15193;BME280;7697;51.630;7.484;2023-04-12T10:07:29;99048.03;;;11.77;100.00
15193;BME280;7697;51.630;7.484;2023-04-12T10:12:32;99021.50;;;11.77;100.00
15193;BME280;7697;51.630;7.484;2023-04-12T10:17:35;99027.75;;;11.88;100.00
15193;BME280;7697;51.630;7.484;2023-04-12T10:22:39;99030.69;;;11.91;100.00
15193;BME280;7697;51.630;7.484;2023-04-12T10:27:42;99020.72;;;11.98;100.00
15193;BME280;7697;51.630;7.484;2023-04-12T10:32:45;99012.09;;;12.35;100.00
15193;BME280;7697;51.630;7.484;2023-04-12T10:37:57;99014.22;;;13.19;100.00
15193;BME280;7697;51.630;7.484;2023-04-12T10:43:25;99020.75;;;13.38;100.00
15193;BME280;7697;51.630;7.484;2023-04-12T10:48:30;99017.00;;;13.81;100.00
15193;BME280;7697;51.630;7.484;2023-04-12T10:53:37;99001.72;;;14.13;98.20
15193;BME280;7697;51.630;7.484;2023-04-12T10:58:55;98987.75;;;13.81;97.00
15193;BME280;7697;51.630;7.484;2023-04-12T11:04:16;98987.75;;;13.81;97.09
15193;BME280;7697;51.630;7.484;2023-04-12T11:09:36;98990.91;;;13.73;96.39
15193;BME280;7697;51.630;7.484;2023-04-12T11:14:52;98991.81;;;13.46;95.93
15193;BME280;7697;51.630;7.484;2023-04-12T11:20:01;98997.81;;;13.27;96.14
15193;BME280;7697;51.630;7.484;2023-04-12T11:25:04;99012.78;;;13.06;98.09
15193;BME280;7697;51.630;7.484;2023-04-12T11:30:08;99011.59;;;12.92;98.32
15193;BME280;7697;51.630;7.484;2023-04-12T11:35:13;99019.44;;;12.76;99.35
15193;BME280;7697;51.630;7.484;2023-04-12T11:40:15;99008.69;;;12.61;99.54
15193;BME280;7697;51.630;7.484;2023-04-12T11:45:18;99013.22;;;12.66;100.00
15193;BME280;7697;51.630;7.484;2023-04-12T11:50:28;99005.09;;;12.77;100.00
15193;BME280;7697;51.630;7.484;2023-04-12T11:55:31;99022.78;;;12.94;100.00
15193;BME280;7697;51.630;7.484;2023-04-12T12:00:33;99024.16;;;13.01;100.00
15193;BME280;7697;51.630;7.484;2023-04-12T12:05:38;99013.84;;;13.05;99.79
15193;BME280;7697;51.630;7.484;2023-04-12T12:10:40;99026.59;;;13.08;98.95
15193;BME280;7697;51.630;7.484;2023-04-12T12:15:50;99030.41;;;12.85;98.17
15193;BME280;7697;51.630;7.484;2023-04-12T12:20:54;99035.75;;;12.63;96.37
15193;BME280;7697;51.630;7.484;2023-04-12T12:25:56;99041.25;;;12.52;96.28
15193;BME280;7697;51.630;7.484;2023-04-12T12:30:58;99026.72;;;12.59;95.71
15193;BME280;7697;51.630;7.484;2023-04-12T12:36:01;99025.50;;;12.72;95.38
15193;BME280;7697;51.630;7.484;2023-04-12T12:41:16;99033.66;;;12.92;94.20
15193;BME280;7697;51.630;7.484;2023-04-12T12:46:18;99021.34;;;13.13;91.10
15193;BME280;7697;51.630;7.484;2023-04-12T12:51:22;99036.56;;;13.18;89.98
15193;BME280;7697;51.630;7.484;2023-04-12T12:56:29;99020.31;;;13.14;88.56
15193;BME280;7697;51.630;7.484;2023-04-12T13:01:31;99014.94;;;13.41;90.18
15193;BME280;7697;51.630;7.484;2023-04-12T13:06:34;99016.50;;;13.89;85.84
15193;BME280;7697;51.630;7.484;2023-04-12T13:11:38;99010.81;;;14.33;83.20
15193;BME280;7697;51.630;7.484;2023-04-12T13:16:40;99006.63;;;14.47;83.44
15193;BME280;7697;51.630;7.484;2023-04-12T13:21:43;99005.06;;;14.56;80.77
15193;BME280;7697;51.630;7.484;2023-04-12T13:26:45;98977.59;;;14.45;80.85
15193;BME280;7697;51.630;7.484;2023-04-12T13:31:47;98988.56;;;14.74;79.83
15193;BME280;7697;51.630;7.484;2023-04-12T13:36:50;98974.16;;;15.11;78.75
15193;BME280;7697;51.630;7.484;2023-04-12T13:41:52;98967.88;;;15.76;78.45
15193;BME280;7697;51.630;7.484;2023-04-12T13:46:54;98972.59;;;16.04;75.54
15193;BME280;7697;51.630;7.484;2023-04-12T13:52:00;98976.50;;;16.22;74.68
15193;BME280;7697;51.630;7.484;2023-04-12T13:57:03;98981.00;;;16.76;74.63
15193;BME280;7697;51.630;7.484;2023-04-12T14:02:05;98983.00;;;17.23;71.26
15193;BME280;7697;51.630;7.484;2023-04-12T14:07:08;98983.56;;;17.20;71.24
15193;BME280;7697;51.630;7.484;2023-04-12T14:12:10;98985.94;;;17.27;70.81
15193;BME280;7697;51.630;7.484;2023-04-12T14:17:12;98985.69;;;17.76;65.34
15193;BME280;7697;51.630;7.484;2023-04-12T14:22:15;98988.28;;;17.33;67.77
15193;BME280;7697;51.630;7.484;2023-04-12T14:27:17;98983.50;;;16.96;68.59
15193;BME280;7697;51.630;7.484;2023-04-12T14:32:20;98998.19;;;16.65;68.98
15193;BME280;7697;51.630;7.484;2023-04-12T14:37:23;98995.41;;;16.31;69.16
15193;BME280;7697;51.630;7.484;2023-04-12T14:42:26;99022.88;;;15.77;69.38
15193;BME280;7697;51.630;7.484;2023-04-12T14:47:27;99045.88;;;14.82;71.55
15193;BME280;7697;51.630;7.484;2023-04-12T14:52:31;99047.84;;;14.29;75.05
15193;BME280;7697;51.630;7.484;2023-04-12T14:57:33;99061.56;;;14.06;75.74
15193;BME280;7697;51.630;7.484;2023-04-12T15:02:35;99073.75;;;13.49;75.97
15193;BME280;7697;51.630;7.484;2023-04-12T15:07:38;99082.06;;;13.26;78.43
15193;BME280;7697;51.630;7.484;2023-04-12T15:12:40;99093.69;;;12.88;81.78
15193;BME280;7697;51.630;7.484;2023-04-12T15:17:42;99094.19;;;12.63;83.45
15193;BME280;7697;51.630;7.484;2023-04-12T15:22:47;99086.31;;;12.47;84.51
15193;BME280;7697;51.630;7.484;2023-04-12T15:27:48;99082.25;;;12.39;85.74
15193;BME280;7697;51.630;7.484;2023-04-12T15:32:50;99102.44;;;12.40;87.13
15193;BME280;7697;51.630;7.484;2023-04-12T15:37:54;99115.22;;;12.43;86.32
15193;BME280;7697;51.630;7.484;2023-04-12T15:42:55;99120.22;;;12.39;86.60
15193;BME280;7697;51.630;7.484;2023-04-12T15:47:57;99122.44;;;12.26;86.45
15193;BME280;7697;51.630;7.484;2023-04-12T15:53:01;99131.19;;;12.26;86.43
15193;BME280;7697;51.630;7.484;2023-04-12T15:58:03;99125.78;;;11.99;86.16
15193;BME280;7697;51.630;7.484;2023-04-12T16:03:08;99154.91;;;11.94;86.88
15193;BME280;7697;51.630;7.484;2023-04-12T16:08:13;99153.47;;;11.87;87.23
15193;BME280;7697;51.630;7.484;2023-04-12T16:13:15;99150.72;;;11.82;86.55
15193;BME280;7697;51.630;7.484;2023-04-12T16:18:17;99142.53;;;11.83;87.14
15193;BME280;7697;51.630;7.484;2023-04-12T16:23:21;99132.50;;;11.85;86.68
15193;BME280;7697;51.630;7.484;2023-04-12T16:28:23;99131.09;;;11.99;86.65
15193;BME280;7697;51.630;7.484;2023-04-12T16:33:27;99152.41;;;12.05;85.64
15193;BME280;7697;51.630;7.484;2023-04-12T16:38:36;99146.94;;;11.94;85.28
15193;BME280;7697;51.630;7.484;2023-04-12T16:43:39;99159.41;;;11.94;84.49
15193;BME280;7697;51.630;7.484;2023-04-12T16:48:42;99147.81;;;11.66;83.96
15193;BME280;7697;51.630;7.484;2023-04-12T16:53:46;99151.69;;;11.59;84.03
15193;BME280;7697;51.630;7.484;2023-04-12T16:58:51;99165.41;;;11.56;83.90
15193;BME280;7697;51.630;7.484;2023-04-12T17:03:58;99185.63;;;11.45;83.45
15193;BME280;7697;51.630;7.484;2023-04-12T17:09:08;99197.38;;;11.33;82.97
15193;BME280;7697;51.630;7.484;2023-04-12T17:14:11;99199.91;;;11.27;81.36
15193;BME280;7697;51.630;7.484;2023-04-12T17:19:13;99226.13;;;11.12;82.25
15193;BME280;7697;51.630;7.484;2023-04-12T17:24:16;99205.03;;;10.89;80.78
15193;BME280;7697;51.630;7.484;2023-04-12T17:29:28;99200.47;;;10.73;83.02
15193;BME280;7697;51.630;7.484;2023-04-12T17:40:17;99157.25;;;10.56;83.51
15193;BME280;7697;51.630;7.484;2023-04-12T17:45:19;99162.84;;;10.59;83.84
15193;BME280;7697;51.630;7.484;2023-04-12T17:50:21;99166.38;;;10.65;83.29
15193;BME280;7697;51.630;7.484;2023-04-12T17:55:24;99188.72;;;10.69;82.99
15193;BME280;7697;51.630;7.484;2023-04-12T18:00:26;99171.81;;;10.58;83.83
15193;BME280;7697;51.630;7.484;2023-04-12T18:05:28;99173.91;;;10.56;83.70
15193;BME280;7697;51.630;7.484;2023-04-12T18:10:32;99164.13;;;10.57;83.83
15193;BME280;7697;51.630;7.484;2023-04-12T18:15:34;99171.16;;;10.51;84.05
15193;BME280;7697;51.630;7.484;2023-04-12T18:20:36;99165.19;;;10.32;83.77
15193;BME280;7697;51.630;7.484;2023-04-12T18:25:39;99167.75;;;10.27;84.28
15193;BME280;7697;51.630;7.484;2023-04-12T18:30:41;99183.72;;;10.21;84.14
15193;BME280;7697;51.630;7.484;2023-04-12T18:35:45;99180.28;;;10.08;84.69
15193;BME280;7697;51.630;7.484;2023-04-12T18:40:48;99202.47;;;10.07;84.69
15193;BME280;7697;51.630;7.484;2023-04-12T18:45:50;99199.22;;;9.94;84.44
15193;BME280;7697;51.630;7.484;2023-04-12T18:50:52;99199.44;;;9.81;84.82
15193;BME280;7697;51.630;7.484;2023-04-12T18:56:06;99193.25;;;9.75;85.46
15193;BME280;7697;51.630;7.484;2023-04-12T19:01:08;99209.41;;;9.67;85.30
15193;BME280;7697;51.630;7.484;2023-04-12T19:06:10;99213.09;;;9.54;85.67
15193;BME280;7697;51.630;7.484;2023-04-12T19:28:18;99215.50;;;9.26;85.93
15193;BME280;7697;51.630;7.484;2023-04-12T19:33:20;99202.56;;;9.06;85.99
15193;BME280;7697;51.630;7.484;2023-04-12T19:38:24;99219.22;;;9.07;86.21
15193;BME280;7697;51.630;7.484;2023-04-12T19:43:27;99219.03;;;8.90;86.87
15193;BME280;7697;51.630;7.484;2023-04-12T19:48:29;99209.22;;;8.79;87.07
15193;BME280;7697;51.630;7.484;2023-04-12T19:53:31;99215.50;;;8.78;87.67
15193;BME280;7697;51.630;7.484;2023-04-12T19:58:35;99209.59;;;8.82;87.63
15193;BME280;7697;51.630;7.484;2023-04-12T20:03:37;99184.88;;;8.77;88.13
15193;BME280;7697;51.630;7.484;2023-04-12T20:08:42;99198.81;;;8.84;88.35
15193;BME280;7697;51.630;7.484;2023-04-12T20:13:46;99193.97;;;8.81;88.47
15193;BME280;7697;51.630;7.484;2023-04-12T20:18:48;99193.47;;;8.72;89.43
15193;BME280;7697;51.630;7.484;2023-04-12T20:23:54;99197.94;;;8.72;89.80
15193;BME280;7697;51.630;7.484;2023-04-12T20:28:58;99179.75;;;8.63;90.18
15193;BME280;7697;51.630;7.484;2023-04-12T20:34:01;99178.22;;;8.56;90.67
15193;BME280;7697;51.630;7.484;2023-04-12T20:39:03;99186.34;;;8.54;91.25
15193;BME280;7697;51.630;7.484;2023-04-12T20:44:06;99181.75;;;8.50;91.61
15193;BME280;7697;51.630;7.484;2023-04-12T20:49:08;99194.66;;;8.58;92.04
15193;BME280;7697;51.630;7.484;2023-04-12T20:54:13;99165.34;;;8.48;92.00
15193;BME280;7697;51.630;7.484;2023-04-12T20:59:17;99157.56;;;8.53;91.63
15193;BME280;7697;51.630;7.484;2023-04-12T21:04:21;99165.16;;;8.61;90.45
15193;BME280;7697;51.630;7.484;2023-04-12T21:09:23;99157.84;;;8.63;90.28
15193;BME280;7697;51.630;7.484;2023-04-12T21:14:27;99161.56;;;8.74;88.44
15193;BME280;7697;51.630;7.484;2023-04-12T21:19:29;99177.19;;;8.75;88.00
15193;BME280;7697;51.630;7.484;2023-04-12T21:24:31;99168.69;;;8.73;87.19
15193;BME280;7697;51.630;7.484;2023-04-12T21:29:38;99171.44;;;8.78;86.36
15193;BME280;7697;51.630;7.484;2023-04-12T21:34:41;99182.00;;;8.78;85.53
15193;BME280;7697;51.630;7.484;2023-04-12T21:39:43;99179.63;;;8.77;85.00
15193;BME280;7697;51.630;7.484;2023-04-12T21:44:46;99181.88;;;8.73;85.55
15193;BME280;7697;51.630;7.484;2023-04-12T21:49:50;99173.44;;;8.83;85.60
15193;BME280;7697;51.630;7.484;2023-04-12T21:54:52;99152.84;;;8.73;84.92
15193;BME280;7697;51.630;7.484;2023-04-12T21:59:56;99137.00;;;8.73;85.10
15193;BME280;7697;51.630;7.484;2023-04-12T22:04:58;99137.16;;;8.60;84.43
15193;BME280;7697;51.630;7.484;2023-04-12T22:10:00;99155.78;;;8.65;84.78
15193;BME280;7697;51.630;7.484;2023-04-12T22:15:05;99161.94;;;8.59;84.18
15193;BME280;7697;51.630;7.484;2023-04-12T22:20:08;99154.31;;;8.51;84.77
15193;BME280;7697;51.630;7.484;2023-04-12T22:25:10;99157.25;;;8.43;83.29
15193;BME280;7697;51.630;7.484;2023-04-12T22:30:16;99156.31;;;8.37;83.59
15193;BME280;7697;51.630;7.484;2023-04-12T22:35:18;99154.63;;;8.43;82.99
15193;BME280;7697;51.630;7.484;2023-04-12T22:40:22;99131.69;;;8.43;83.16
15193;BME280;7697;51.630;7.484;2023-04-12T22:45:25;99135.34;;;8.42;84.18
15193;BME280;7697;51.630;7.484;2023-04-12T22:50:27;99130.06;;;8.42;84.56
15193;BME280;7697;51.630;7.484;2023-04-12T22:55:30;99128.84;;;8.45;84.80
15193;BME280;7697;51.630;7.484;2023-04-12T23:00:33;99117.91;;;8.41;85.27
15193;BME280;7697;51.630;7.484;2023-04-12T23:05:35;99109.31;;;8.27;85.81
15193;BME280;7697;51.630;7.484;2023-04-12T23:10:44;99116.00;;;8.30;86.33
15193;BME280;7697;51.630;7.484;2023-04-12T23:15:47;99101.28;;;8.22;86.99
15193;BME280;7697;51.630;7.484;2023-04-12T23:20:49;99099.50;;;8.16;86.73
15193;BME280;7697;51.630;7.484;2023-04-12T23:25:51;99080.31;;;8.09;87.01
15193;BME280;7697;51.630;7.484;2023-04-12T23:30:56;99067.66;;;8.00;87.68
15193;BME280;7697;51.630;7.484;2023-04-12T23:36:01;99059.81;;;7.93;87.70
15193;BME280;7697;51.630;7.484;2023-04-12T23:41:05;99065.69;;;7.95;87.56
15193;BME280;7697;51.630;7.484;2023-04-12T23:46:09;99061.88;;;7.91;88.33
15193;BME280;7697;51.630;7.484;2023-04-12T23:51:11;99050.16;;;7.87;87.26
15193;BME280;7697;51.630;7.484;2023-04-12T23:56:13;99047.22;;;7.77;87.24
